Latest Coastal Weather Observations for Broome Port

IDW60701

Issued at 5:22 am WST Sunday 30 April 2017 (issued every 10 minutes, with the page automatically refreshed every 10 minutes)

About coastal observations | Map of coastal stations | Coastal observations for WA | Marine services | Other Formats
Station Details ID: 003102 Name: BROOME NTC AWS Lat: -18.00 Lon: 122.22 Height: 0.0 m
Data from the previous 72 hours. | See also: Recent months for locations in Western Australia
Date/Time
WST
Temp
°C
Wind Pressure Rain since
9am
mm
Weather Cloud Vis
km
Sea
Height
m
Swell
Dir  Spd
kts
Gust
kts
hPa Trend Height
m
Period
s
Dir
30/05:00am 25.5 SE 13 15 1012.3 - - - - - - - - -
30/04:30am 25.7 SE 13 14 1012.3 - - - - - - - - -
30/04:00am 25.7 SE 13 15 1012.1 - - - - - - - - -
30/03:30am 25.9 SE 12 14 1012.0 - - - - - - - - -
30/03:00am 26.3 SE 13 17 1012.1 - - - - - - - - -
30/02:30am 26.5 SE 14 17 1012.0 - - - - - - - - -
30/02:00am 26.6 SE 15 17 1012.2 - - - - - - - - -
30/01:30am 26.9 SE 13 15 1012.3 - - - - - - - - -
30/01:00am 26.9 SE 15 17 1012.6 - - - - - - - - -
30/12:30am 27.1 SSE 17 19 1012.5 - - - - - - - - -
30/12:00am 27.1 SSE 15 17 1012.6 - - - - - - - - -
 
Date/Time
WST
Temp
°C
Wind Pressure Rain since
9am
mm
Weather Cloud Vis
km
Sea
Height
m
Swell
Dir  Spd
kts
Gust
kts
hPa Trend Height
m
Period
s
Dir
29/11:30pm 27.1 SSE 13 15 1012.7 - - - - - - - - -
29/11:00pm 27.2 SSE 14 15 1012.9 - - - - - - - - -
29/10:30pm 27.2 SSE 12 14 1013.1 - - - - - - - - -
29/10:00pm 27.4 SSE 11 13 1013.1 - - - - - - - - -
29/09:30pm 28.3 SE 11 13 1013.3 - - - - - - - - -
29/09:00pm 28.5 SE 12 14 1013.3 - - - - - - - - -
29/08:30pm 28.9 SE 13 16 1013.3 - - - - - - - - -
29/08:00pm 29.0 SE 14 16 1013.0 - - - - - - - - -
29/07:30pm 29.0 SE 11 14 1012.8 - - - - - - - - -
29/07:00pm 29.0 SE 10 11 1012.6 - - - - - - - - -
29/06:30pm 28.9 ESE 9 10 1012.4 - - - - - - - - -
29/06:00pm 28.9 ESE 8 9 1012.2 - - - - - - - - -
29/05:30pm 29.3 ESE 8 9 1012.0 - - - - - - - - -
29/05:00pm 29.7 SE 10 11 1011.6 - - - - - - - - -
29/04:30pm 29.6 ESE 7 9 1011.4 - - - - - - - - -
29/04:00pm 29.9 SE 10 12 1011.1 - - - - - - - - -
29/03:30pm 29.8 SSE 10 11 1011.0 - - - - - - - - -
29/03:00pm 29.7 SSE 11 12 1010.9 - - - - - - - - -
29/02:30pm 29.5 SSE 10 12 1010.7 - - - - - - - - -
29/02:00pm 29.4 SSE 10 12 1010.5 - - - - - - - - -
29/01:30pm 29.1 SSE 11 12 1010.7 - - - - - - - - -
29/01:00pm 28.9 SE 11 13 1011.0 - - - - - - - - -
29/12:30pm 28.3 SSE 11 14 1011.5 - - - - - - - - -
29/12:00pm 28.3 SSE 11 15 1012.0 - - - - - - - - -
29/11:30am 27.8 SSE 11 14 1012.5 - - - - - - - - -
29/11:00am 27.4 SE 11 14 1012.9 - - - - - - - - -
29/10:30am 26.8 SE 12 15 1013.3 - - - - - - - - -
29/10:00am 26.3 SE 13 16 1013.6 - - - - - - - - -
29/09:30am 25.6 SE 13 17 1013.9 - - - - - - - - -
29/09:00am 24.8 SE 15 18 1014.0 - - - - - - - - -
29/08:30am 24.6 SE 16 20 1013.9 - - - - - - - - -
29/08:00am 24.6 SE 17 19 1013.8 - - - - - - - - -
29/07:30am 23.8 SE 18 21 1013.4 - - - - - - - - -
29/07:00am 23.8 SE 18 21 1013.2 - - - - - - - - -
29/06:30am 24.3 SE 18 21 1012.8 - - - - - - - - -
29/06:00am 24.6 SE 18 21 1012.6 - - - - - - - - -
29/05:30am 24.6 SE 18 22 1012.2 - - - - - - - - -
29/05:00am 24.7 SE 17 21 1011.9 - - - - - - - - -
29/04:30am 25.0 SE 18 21 1011.8 - - - - - - - - -
29/04:00am 25.1 SE 18 20 - - - - - - - - - -
29/03:30am 25.4 SE 17 21 - - - - - - - - - -
29/03:00am 25.6 SE 19 21 1011.6 - - - - - - - - -
29/02:30am 26.2 SE 19 22 1011.7 - - - - - - - - -
29/02:00am 26.5 SE 20 24 1011.7 - - - - - - - - -
29/01:30am 26.5 SE 21 24 1012.0 - - - - - - - - -
29/01:00am 27.0 SE 20 24 1012.3 - - - - - - - - -
29/12:30am 27.3 SE 17 21 1012.5 - - - - - - - - -
29/12:00am 26.8 SE 16 18 1012.8 - - - - - - - - -
 
Date/Time
WST
Temp
°C
Wind Pressure Rain since
9am
mm
Weather Cloud Vis
km
Sea
Height
m
Swell
Dir  Spd
kts
Gust
kts
hPa Trend Height
m
Period
s
Dir
28/11:30pm 27.3 SE 16 18 - - - - - - - - - -
28/11:00pm 28.0 SE 16 19 1013.1 - - - - - - - - -
28/10:30pm 28.4 SE 15 19 1013.3 - - - - - - - - -
28/10:00pm 28.1 SE 14 17 1013.6 - - - - - - - - -
28/09:30pm 28.5 SE 14 16 1013.8 - - - - - - - - -
28/09:00pm 28.6 SE 9 16 1013.7 - - - - - - - - -
28/08:30pm 29.1 SE 9 17 1013.7 - - - - - - - - -
28/08:00pm 29.1 SE 9 15 1013.7 - - - - - - - - -
28/07:30pm 29.1 SE 11 15 1013.4 - - - - - - - - -
28/07:00pm 29.2 ESE 13 15 1013.1 - - - - - - - - -
28/06:30pm 29.4 ESE 11 13 1012.8 - - - - - - - - -
28/06:00pm 29.6 ESE 10 12 1012.5 - - - - - - - - -
28/05:30pm 30.4 ESE 11 14 1012.1 - - - - - - - - -
28/05:00pm 30.4 ESE 10 13 1011.7 - - - - - - - - -
28/04:30pm 30.8 E 12 13 1011.4 - - - - - - - - -
28/04:00pm 31.0 ESE 12 14 1011.1 - - - - - - - - -
28/03:30pm 31.2 ESE 9 12 1010.9 - - - - - - - - -
28/03:00pm 31.1 ESE 8 10 1010.8 - - - - - - - - -
28/02:30pm 31.0 ESE 7 10 1010.6 - - - - - - - - -
28/02:00pm 31.0 ESE 6 10 1010.6 - - - - - - - - -
28/01:30pm 30.8 ESE 7 12 1010.7 - - - - - - - - -
28/01:00pm 30.5 ESE 8 13 1011.1 - - - - - - - - -
28/12:30pm 30.3 ESE 6 13 1011.4 - - - - - - - - -
28/12:00pm 30.1 ESE 5 14 1011.8 - - - - - - - - -
28/11:30am 29.7 ESE 7 15 1012.5 - - - - - - - - -
28/11:00am 29.3 ESE 7 16 1012.7 - - - - - - - - -
28/10:30am 28.7 ESE 9 17 1013.0 - - - - - - - - -
28/10:00am 28.3 ESE 10 22 1013.6 - - - - - - - - -
28/09:30am 27.6 ESE 14 23 1013.6 - - - - - - - - -
28/09:00am 27.1 ESE 14 23 1013.5 - - - - - - - - -
28/08:30am 26.0 ESE 13 20 1013.4 - - - - - - - - -
28/08:00am 25.4 ESE 15 20 1013.4 - - - - - - - - -
28/07:30am 25.4 ESE 13 19 1013.3 - - - - - - - - -
28/07:00am 25.7 SE 15 20 1013.1 - - - - - - - - -
28/06:30am 25.8 SE 15 19 1012.8 - - - - - - - - -
28/06:00am 25.8 SE 15 19 1012.6 - - - - - - - - -
28/05:30am 25.9 SE 14 18 1012.4 - - - - - - - - -
28/05:00am 26.1 SE 13 19 1012.1 - - - - - - - - -
28/04:30am 26.4 SE 15 19 1012.0 - - - - - - - - -
28/04:00am 26.9 SE 15 21 1011.7 - - - - - - - - -
28/03:30am 27.1 SE 11 19 1011.5 - - - - - - - - -
28/03:00am 27.5 SE 10 20 1011.4 - - - - - - - - -
28/02:30am 27.8 SE 10 19 1011.6 - - - - - - - - -
28/02:00am 28.1 SSE 8 19 1011.6 - - - - - - - - -
28/01:30am 28.4 SE 7 16 1011.6 - - - - - - - - -
28/01:00am 28.6 SE 5 13 1011.8 - - - - - - - - -
28/12:30am 28.7 SE 4 13 1011.9 - - - - - - - - -
28/12:00am 28.8 SE 3 9 1012.0 - - - - - - - - -
 
Date/Time
WST
Temp
°C
Wind Pressure Rain since
9am
mm
Weather Cloud Vis
km
Sea
Height
m
Swell
Dir  Spd
kts
Gust
kts
hPa Trend Height
m
Period
s
Dir
27/11:30pm 28.9 SE 3 11 1012.1 - - - - - - - - -
27/11:00pm 29.0 ESE 3 11 1012.3 - - - - - - - - -
27/10:30pm 29.2 SE 13 23 1012.2 - - - - - - - - -
27/10:00pm 29.6 SSE 18 22 1012.4 - - - - - - - - -
27/09:30pm 30.3 SSE 15 20 1012.4 - - - - - - - - -
27/09:00pm 30.1 SSE 14 16 1012.6 - - - - - - - - -
27/08:30pm 30.0 SSE 10 13 1012.5 - - - - - - - - -
27/08:00pm 30.4 SSE 8 12 1012.3 - - - - - - - - -
27/07:30pm 31.4 SE 8 9 1012.0 - - - - - - - - -
27/07:00pm 31.0 SSE 7 9 1011.5 - - - - - - - - -
27/06:30pm 31.6 S 4 6 1011.2 - - - - - - - - -
27/06:00pm 32.0 S 3 4 1010.7 - - - - - - - - -
27/05:30pm 32.8 SSE 4 5 1010.4 - - - - - - - - -
27/05:00pm 32.6 SSW 4 5 1010.1 - - - - - - - - -
27/04:30pm 31.7 SW 5 6 1009.9 - - - - - - - - -
27/04:00pm 32.2 SSW 1 3 1009.6 - - - - - - - - -
27/03:30pm 31.5 SW 5 6 1009.5 - - - - - - - - -
27/03:00pm 32.1 SSW 4 4 1009.5 - - - - - - - - -
27/02:30pm 31.3 SSE 3 4 1009.4 - - - - - - - - -
27/02:00pm 31.3 ESE 7 9 1009.6 - - - - - - - - -
27/01:30pm 30.8 ESE 6 8 1010.0 - - - - - - - - -
27/01:00pm 30.3 ESE 8 9 1010.4 - - - - - - - - -
27/12:30pm 30.6 ESE 10 12 1010.6 - - - - - - - - -
27/12:00pm 30.0 ESE 12 13 1011.2 - - - - - - - - -
27/11:30am 29.6 ESE 13 15 1011.7 - - - - - - - - -
27/11:00am 29.4 ESE 15 17 1012.2 - - - - - - - - -
27/10:30am 28.9 ESE 17 19 1012.7 - - - - - - - - -
27/10:00am 28.8 ESE 16 19 1013.0 - - - - - - - - -
27/09:30am 28.3 SE 18 21 1013.2 - - - - - - - - -
27/09:00am 27.5 SE 17 21 1013.2 - - - - - - - - -
27/08:30am 26.5 SE 18 22 1013.1 - - - - - - - - -
27/08:00am 26.1 SE 17 20 1013.1 - - - - - - - - -
27/07:30am 26.0 SE 17 21 1012.9 - - - - - - - - -
27/07:00am 26.1 SE 17 19 1012.6 - - - - - - - - -
27/06:30am 26.6 SE 18 21 1012.2 - - - - - - - - -
27/06:00am 26.8 SE 18 21 1012.0 - - - - - - - - -
27/05:30am 27.2 SE 18 21 1011.7 - - - - - - - - -

Other Formats:

Comma delimited format used in spreadsheet applications
http://www.bom.gov.au/fwo/IDW60701/IDW60701.95202.axf

JavaScript Object Notation format (JSON) in row-major order
http://www.bom.gov.au/fwo/IDW60701/IDW60701.95202.json